Aérodrome de Toulouse-Lasbordes

LFCL · Alto Garona, Occitanie, Francia

METAR pasados LFCL · Toulouse-Lasbordes Airport

A continuación puedes ver los METAR de los últimos días. Selecciona un año para ver los METAR más antiguos, desde el año 2007 en adelante.

13 de abril de 2024

Hora Código Tiempo Temp. Visibilidad Cielo nuboso Viento METAR/SPECI
16:30
V
28 °C 10 km+ - 020° 020° 4 kt METAR LFBF 131430Z AUTO 02004KT 330V090 CAVOK 28/13 Q1025
16:00
V
28 °C 10 km+ - 040° 040° 4 kt METAR LFBF 131400Z AUTO 04004KT 340V110 CAVOK 28/13 Q1025
15:30
V
27 °C 10 km+ - 020° 020° 5 kt METAR LFBF 131330Z AUTO 02005KT 350V060 CAVOK 27/12 Q1026
15:00
V
27 °C 10 km+ - Var Var 4 kt METAR LFBF 131300Z AUTO VRB04KT CAVOK 27/12 Q1026
14:30
V
27 °C 10 km+ - 020° 020° 3 kt METAR LFBF 131230Z AUTO 02003KT 310V120 CAVOK 27/10 Q1026
14:00
V
26 °C 10 km+ - 030° 030° 4 kt METAR LFBF 131200Z AUTO 03004KT 320V110 CAVOK 26/11 Q1027
13:30
V
25 °C 10 km+ - 030° 030° 3 kt METAR LFBF 131130Z AUTO 03003KT 320V070 CAVOK 25/10 Q1027
13:00
V
24 °C 10 km+ - 060° 060° 3 kt METAR LFBF 131100Z AUTO 06003KT 010V130 CAVOK 24/10 Q1027
12:30
V
23 °C 10 km+ - Var Var 2 kt METAR LFBF 131030Z AUTO VRB02KT CAVOK 23/10 Q1028
12:00
V
22 °C 10 km+ - Var Var 1 kt METAR LFBF 131000Z AUTO VRB01KT CAVOK 22/10 Q1028
11:30
V
20 °C 10 km+ - Var Var 2 kt METAR LFBF 130930Z AUTO VRB02KT CAVOK 20/10 Q1028
11:00
V
19 °C 10 km+ - 360° 360° 0 kt METAR LFBF 130900Z AUTO 00000KT CAVOK 19/11 Q1028
10:30
V
18 °C 10 km+ - Var Var 1 kt METAR LFBF 130830Z AUTO VRB01KT CAVOK 18/10 Q1028
10:00
V
16 °C 10 km+ - Var Var 2 kt METAR LFBF 130800Z AUTO VRB02KT CAVOK 16/10 Q1028
09:30
V
14 °C 10 km+ - 180° 180° 3 kt METAR LFBF 130730Z AUTO 18003KT CAVOK 14/09 Q1028
09:00
V
12 °C 10 km+ - 180° 180° 3 kt METAR LFBF 130700Z AUTO 18003KT 150V220 CAVOK 12/09 Q1028
08:30
V
11 °C 10 km+ - 180° 180° 5 kt METAR LFBF 130630Z AUTO 18005KT CAVOK 11/09 Q1028
08:00
V
10 °C 10 km+ - 200° 200° 3 kt METAR LFBF 130600Z AUTO 20003KT CAVOK 10/08 Q1028
07:30
V
9 °C 10 km+ - 180° 180° 2 kt METAR LFBF 130530Z AUTO 18002KT CAVOK 09/08 Q1028
07:00
V
9 °C 10 km+ - 170° 170° 3 kt METAR LFBF 130500Z AUTO 17003KT CAVOK 09/08 Q1028
06:30
V
9 °C 10 km+ - 190° 190° 2 kt METAR LFBF 130430Z AUTO 19002KT CAVOK 09/08 Q1028
06:00
V
9 °C 10 km+ - 360° 360° 0 kt METAR LFBF 130400Z AUTO 00000KT CAVOK 09/08 Q1028

12 de abril de 2024

Hora Código Tiempo Temp. Visibilidad Cielo nuboso Viento METAR/SPECI
21:00
V
20 °C 10 km+ - 330° 330° 3 kt METAR LFBF 121900Z AUTO 33003KT CAVOK 20/09 Q1028
20:30
V
21 °C 10 km+ - 340° 340° 5 kt METAR LFBF 121830Z AUTO 34005KT CAVOK 21/09 Q1028
20:00
V
23 °C 10 km+ - 340° 340° 5 kt METAR LFBF 121800Z AUTO 34005KT CAVOK 23/10 Q1028
19:30
V
24 °C 10 km+ - 340° 340° 6 kt METAR LFBF 121730Z AUTO 34006KT CAVOK 24/09 Q1028
19:00
V
24 °C 10 km+ - 360° 360° 5 kt METAR LFBF 121700Z AUTO 36005KT CAVOK 24/08 Q1028
18:30
V
24 °C 10 km+ - 020° 020° 6 kt METAR LFBF 121630Z AUTO 02006KT 350V050 CAVOK 24/10 Q1028
18:00
V
25 °C 10 km+ - 350° 350° 3 kt METAR LFBF 121600Z AUTO 35003KT 290V040 CAVOK 25/09 Q1028
17:30
V
25 °C 10 km+ - 340° 340° 6 kt METAR LFBF 121530Z AUTO 34006KT 300V020 CAVOK 25/09 Q1028
17:00
V
25 °C 10 km+ - 330° 330° 4 kt METAR LFBF 121500Z AUTO 33004KT 290V040 CAVOK 25/10 Q1029
16:30
V
25 °C 10 km+ - Var Var 3 kt METAR LFBF 121430Z AUTO VRB03KT CAVOK 25/10 Q1029
16:00
V
25 °C 10 km+ - 060° 060° 3 kt METAR LFBF 121400Z AUTO 06003KT 360V140 CAVOK 25/11 Q1029
15:30
V
25 °C 10 km+ - Var Var 2 kt METAR LFBF 121330Z AUTO VRB02KT CAVOK 25/09 Q1030
15:00
V
24 °C 10 km+ - 090° 090° 3 kt METAR LFBF 121300Z AUTO 09003KT 020V150 CAVOK 24/08 Q1030
14:30
V
23 °C 10 km+ - Var Var 2 kt METAR LFBF 121230Z AUTO VRB02KT CAVOK 23/12 Q1030
14:00
V
22 °C 10 km+ - 350° 350° 4 kt METAR LFBF 121200Z AUTO 35004KT 300V060 CAVOK 22/11 Q1031
13:30
V
22 °C 10 km+ - 080° 080° 3 kt METAR LFBF 121130Z AUTO 08003KT 030V160 CAVOK 22/11 Q1031
13:00
V
21 °C 10 km+ - 080° 080° 3 kt METAR LFBF 121100Z AUTO 08003KT 040V130 CAVOK 21/11 Q1031
12:30
V
20 °C 10 km+ - 020° 020° 3 kt METAR LFBF 121030Z AUTO 02003KT 310V120 CAVOK 20/12 Q1032
12:00
V
19 °C 10 km+ - Var Var 2 kt METAR LFBF 121000Z AUTO VRB02KT CAVOK 19/11 Q1032
11:30
V
18 °C 10 km+ - Var Var 1 kt METAR LFBF 120930Z AUTO VRB01KT CAVOK 18/10 Q1032
11:00
V
17 °C 10 km+ - 360° 360° 0 kt METAR LFBF 120900Z AUTO 00000KT CAVOK 17/09 Q1032
10:30
V
15 °C 10 km+ - Var Var 2 kt METAR LFBF 120830Z AUTO VRB02KT CAVOK 15/09 Q1032
10:00
V
13 °C 10 km+ - Var Var 2 kt METAR LFBF 120800Z AUTO VRB02KT CAVOK 13/08 Q1032
09:30
V
12 °C 10 km+ - Var Var 3 kt METAR LFBF 120730Z AUTO VRB03KT CAVOK 12/07 Q1032
09:00
V
11 °C 10 km+ - Var Var 2 kt METAR LFBF 120700Z AUTO VRB02KT CAVOK 11/07 Q1032
08:30
V
9 °C 10 km+ - 200° 200° 3 kt METAR LFBF 120630Z AUTO 20003KT 180V240 CAVOK 09/07 Q1032
08:00
V
8 °C 10 km+ - 180° 180° 3 kt METAR LFBF 120600Z AUTO 18003KT CAVOK 08/06 Q1032
07:30
V
7 °C 10 km+ - 170° 170° 3 kt METAR LFBF 120530Z AUTO 17003KT CAVOK 07/06 Q1032
07:00
V
7 °C 10 km+ - 190° 190° 5 kt METAR LFBF 120500Z AUTO 19005KT CAVOK 07/06 Q1032
06:30
V
8 °C 10 km+ - 190° 190° 5 kt METAR LFBF 120430Z AUTO 19005KT CAVOK 08/06 Q1032
06:00
V
8 °C 10 km+ - 190° 190° 5 kt METAR LFBF 120400Z AUTO 19005KT CAVOK 08/07 Q1032

11 de abril de 2024

Hora Código Tiempo Temp. Visibilidad Cielo nuboso Viento METAR/SPECI
21:00
V
16 °C 10 km+ - 270° 270° 5 kt METAR LFBF 111900Z AUTO 27005KT CAVOK 16/08 Q1032
20:30
V
17 °C 10 km+ - 300° 300° 5 kt METAR LFBF 111830Z AUTO 30005KT CAVOK 17/08 Q1032
20:00
V
18 °C 10 km+ - 290° 290° 5 kt METAR LFBF 111800Z AUTO 29005KT 250V320 CAVOK 18/08 Q1032
19:30
V
19 °C 10 km+ - 340° 340° 3 kt METAR LFBF 111730Z AUTO 34003KT 280V010 CAVOK 19/07 Q1032
19:00
V
19 °C 10 km+ - 310° 310° 6 kt METAR LFBF 111700Z AUTO 31006KT 270V350 CAVOK 19/07 Q1032
18:30
V
19 °C 10 km+ - 330° 330° 7 kt METAR LFBF 111630Z AUTO 33007KT 270V020 CAVOK 19/08 Q1031
18:00
V
19 °C 10 km+ - 340° 340° 4 kt METAR LFBF 111600Z AUTO 34004KT 290V020 CAVOK 19/07 Q1032
17:30
V
19 °C 10 km+ - 340° 340° 6 kt METAR LFBF 111530Z AUTO 34006KT 280V030 CAVOK 19/07 Q1032
17:00
V
19 °C 10 km+ - 340° 340° 9 kt METAR LFBF 111500Z AUTO 34009KT 290V010 CAVOK 19/07 Q1032
16:30
V
19 °C 10 km+ - 340° 340° 9 kt METAR LFBF 111430Z AUTO 34009KT CAVOK 19/07 Q1032
16:00
V
18 °C 10 km+ - 330° 330° 8 kt METAR LFBF 111400Z AUTO 33008KT 310V010 9999 FEW047 18/06 Q1032
15:30
V
18 °C 10 km+ - 320° 320° 7 kt METAR LFBF 111330Z AUTO 32007KT 280V360 9999 SCT047 SCT220 18/07 Q1032
15:00
V
18 °C 10 km+ - 340° 340° 8 kt METAR LFBF 111300Z AUTO 34008KT 310V010 9999 FEW048 18/07 Q1032
14:30
V
18 °C 10 km+ - 330° 330° 6 kt METAR LFBF 111230Z AUTO 33006KT 250V020 9999 FEW046 18/07 Q1033
14:00
V
17 °C 10 km+ 4.300 ft 310° 310° 6 kt METAR LFBF 111200Z AUTO 31006KT 210V010 9999 BKN043 17/07 Q1033
13:30
V
17 °C 10 km+ - 280° 280° 5 kt METAR LFBF 111130Z AUTO 28005KT 240V330 9999 SCT042 17/06 Q1033
13:00
V
16 °C 10 km+ - 290° 290° 7 kt METAR LFBF 111100Z AUTO 29007KT 230V330 9999 SCT042 16/07 Q1034
12:30
V
15 °C 10 km+ - 300° 300° 7 kt METAR LFBF 111030Z AUTO 30007KT 260V350 9999 SCT038 15/06 Q1034
12:00
V
16 °C 10 km+ - 300° 300° 6 kt METAR LFBF 111000Z AUTO 30006KT 260V340 9999 SCT039 16/08 Q1034
11:30
V
15 °C 10 km+ - 290° 290° 5 kt METAR LFBF 110930Z AUTO 29005KT 240V330 CAVOK 15/07 Q1034
11:00
V
14 °C 10 km+ - 260° 260° 4 kt METAR LFBF 110900Z AUTO 26004KT 200V320 CAVOK 14/08 Q1034
10:30
V
13 °C 10 km+ - 260° 260° 5 kt METAR LFBF 110830Z AUTO 26005KT 210V320 CAVOK 13/08 Q1034
10:00
V
11 °C 10 km+ - 260° 260° 4 kt METAR LFBF 110800Z AUTO 26004KT 190V290 CAVOK 11/08 Q1034
09:30
V
11 °C 10 km+ - 280° 280° 6 kt METAR LFBF 110730Z AUTO 28006KT CAVOK 11/07 Q1034
09:00
V
10 °C 10 km+ - 250° 250° 4 kt METAR LFBF 110700Z AUTO 25004KT 190V280 CAVOK 10/07 Q1034
08:30
V
9 °C 10 km+ - 260° 260° 7 kt METAR LFBF 110630Z AUTO 26007KT 220V280 CAVOK 09/07 Q1034
08:00
V
7 °C 10 km+ - 220° 220° 5 kt METAR LFBF 110600Z AUTO 22005KT CAVOK 07/06 Q1033
Cambiar esta información